createdAt,value
2022-10-06T00:00:17.591Z,0.40
2022-10-06T00:03:27.479Z,0.50
2022-10-06T00:06:35.882Z,0.20
2022-10-06T00:09:44.368Z,0.50
2022-10-06T00:12:53.923Z,0.37
2022-10-06T00:16:02.607Z,0.30
2022-10-06T00:19:12.551Z,0.20
2022-10-06T00:22:21.067Z,0.50
2022-10-06T00:25:29.610Z,0.60
2022-10-06T00:28:38.173Z,0.30
2022-10-06T00:31:46.603Z,0.43
2022-10-06T00:34:58.683Z,0.30
2022-10-06T00:38:07.185Z,0.40
2022-10-06T00:41:17.109Z,0.47
2022-10-06T00:44:25.994Z,0.33
2022-10-06T00:47:34.910Z,0.30
2022-10-06T00:50:45.335Z,0.43
2022-10-06T00:53:54.010Z,0.60
2022-10-06T00:57:02.636Z,0.40
2022-10-06T01:00:12.195Z,0.30
2022-10-06T01:03:25.269Z,0.40
2022-10-06T01:06:45.303Z,0.23
2022-10-06T01:09:54.345Z,0.40
2022-10-06T01:13:03.340Z,0.33
2022-10-06T01:16:18.618Z,0.47
2022-10-06T01:19:40.763Z,0.33
2022-10-06T01:22:54.142Z,0.27
2022-10-06T01:26:05.938Z,0.37
2022-10-06T01:29:15.277Z,0.57
2022-10-06T01:32:24.758Z,0.47
2022-10-06T01:35:34.781Z,0.50
2022-10-06T01:38:44.714Z,0.60
2022-10-06T01:41:53.155Z,0.63
2022-10-06T01:45:01.631Z,0.83
2022-10-06T01:48:11.208Z,0.57
2022-10-06T01:51:22.023Z,0.63
2022-10-06T01:54:31.979Z,0.57
2022-10-06T01:57:40.903Z,0.60
2022-10-06T02:00:50.960Z,0.40
2022-10-06T02:03:59.438Z,0.50
2022-10-06T02:07:08.292Z,0.50
2022-10-06T02:10:25.262Z,0.73
2022-10-06T02:13:34.089Z,0.73
2022-10-06T02:16:43.681Z,0.40
2022-10-06T02:19:53.302Z,0.93
2022-10-06T02:23:01.788Z,0.57
2022-10-06T02:26:12.099Z,0.57
2022-10-06T02:29:21.238Z,0.50
2022-10-06T02:32:35.468Z,0.60
2022-10-06T02:35:44.430Z,1.03
2022-10-06T02:38:54.049Z,0.60
2022-10-06T02:42:05.541Z,0.80
2022-10-06T02:45:14.489Z,0.67
2022-10-06T02:48:24.370Z,0.80
2022-10-06T02:51:33.201Z,0.63
2022-10-06T02:54:42.562Z,1.00
2022-10-06T02:57:52.526Z,0.43
2022-10-06T03:01:04.367Z,0.67
2022-10-06T03:04:13.051Z,0.70
2022-10-06T03:07:23.160Z,0.60
2022-10-06T03:10:31.762Z,0.67
2022-10-06T03:13:42.409Z,0.87
2022-10-06T03:16:51.674Z,0.73
2022-10-06T03:20:09.635Z,1.03
2022-10-06T03:23:18.237Z,0.90
2022-10-06T03:26:29.858Z,0.80
2022-10-06T03:29:40.131Z,1.20
2022-10-06T03:32:49.808Z,0.83
2022-10-06T03:36:02.137Z,0.83
2022-10-06T03:39:12.400Z,0.90
2022-10-06T03:42:21.943Z,0.60
2022-10-06T03:45:31.914Z,0.93
2022-10-06T03:48:40.751Z,1.17
2022-10-06T03:51:49.490Z,0.80
2022-10-06T03:55:03.157Z,0.77
2022-10-06T03:58:11.900Z,0.70
2022-10-06T04:01:26.459Z,0.83
2022-10-06T04:04:35.718Z,0.97
2022-10-06T04:07:49.018Z,0.77
2022-10-06T04:11:05.268Z,1.00
2022-10-06T04:14:17.777Z,1.43
2022-10-06T04:17:29.146Z,1.03
2022-10-06T04:20:37.623Z,0.70
2022-10-06T04:23:46.254Z,0.90
2022-10-06T04:27:15.226Z,0.90
2022-10-06T04:30:26.320Z,1.00
2022-10-06T04:33:36.694Z,0.90
2022-10-06T04:36:45.330Z,0.80
2022-10-06T04:39:56.379Z,1.13
2022-10-06T04:43:05.806Z,1.13
2022-10-06T04:46:41.006Z,0.70
2022-10-06T04:49:46.210Z,0.70
2022-10-06T04:52:55.185Z,0.70
2022-10-06T04:56:05.542Z,1.00
2022-10-06T04:59:15.741Z,0.70
2022-10-06T05:02:25.905Z,0.90
2022-10-06T05:05:38.213Z,0.63
2022-10-06T05:08:50.030Z,0.90
2022-10-06T05:11:58.759Z,0.63
2022-10-06T05:15:09.766Z,1.10
2022-10-06T05:18:18.280Z,0.77
2022-10-06T05:21:30.318Z,0.73
2022-10-06T05:24:40.245Z,0.80
2022-10-06T05:27:48.820Z,0.60
2022-10-06T05:30:59.389Z,0.80
2022-10-06T05:34:08.668Z,0.53
2022-10-06T05:37:19.131Z,0.83
2022-10-06T05:40:27.751Z,0.87
2022-10-06T05:43:37.017Z,0.80
2022-10-06T05:46:45.586Z,0.60
2022-10-06T05:49:54.840Z,0.60
2022-10-06T05:53:04.806Z,0.57
2022-10-06T05:56:15.229Z,0.53
2022-10-06T05:59:24.583Z,0.37
2022-10-06T06:02:35.583Z,0.90
2022-10-06T06:05:44.443Z,0.40
2022-10-06T06:08:56.656Z,0.50
2022-10-06T06:12:05.681Z,0.50
2022-10-06T06:15:44.720Z,0.40
2022-10-06T06:18:53.688Z,0.53
2022-10-06T06:22:03.053Z,0.70
2022-10-06T06:25:14.993Z,0.70
2022-10-06T06:28:25.301Z,1.00
2022-10-06T06:31:35.749Z,0.65
2022-10-06T06:34:44.300Z,0.50
2022-10-06T06:37:52.815Z,0.93
2022-10-06T06:41:02.662Z,0.45
2022-10-06T06:44:12.507Z,0.50
2022-10-06T06:47:26.758Z,0.50
2022-10-06T06:50:37.090Z,0.50
2022-10-06T06:53:46.393Z,0.47
2022-10-06T06:56:56.967Z,0.60
2022-10-06T07:00:08.150Z,0.57
2022-10-06T07:03:38.424Z,0.63
2022-10-06T07:06:57.148Z,0.93
2022-10-06T07:10:08.542Z,0.65
2022-10-06T07:13:18.731Z,0.93
2022-10-06T07:16:44.733Z,0.90
2022-10-06T07:20:10.473Z,0.80
2022-10-06T07:23:39.167Z,1.02
2022-10-06T07:26:57.831Z,0.73
2022-10-06T07:30:09.855Z,0.70
2022-10-06T07:33:18.457Z,1.20
2022-10-06T07:36:28.719Z,0.80
2022-10-06T07:39:37.435Z,0.93
2022-10-06T07:42:53.028Z,0.77
2022-10-06T07:46:19.461Z,1.10
2022-10-06T07:49:35.783Z,1.35
2022-10-06T07:52:44.221Z,0.90
2022-10-06T07:55:52.872Z,1.30
2022-10-06T07:59:06.267Z,1.38
2022-10-06T08:02:16.353Z,1.42
2022-10-06T08:05:24.917Z,1.45
2022-10-06T08:08:37.050Z,1.27
2022-10-06T08:11:47.381Z,1.83
2022-10-06T08:14:56.192Z,1.13
2022-10-06T08:18:16.661Z,1.10
2022-10-06T08:21:31.903Z,1.23
2022-10-06T08:25:04.249Z,1.40
2022-10-06T08:28:08.733Z,1.25
2022-10-06T08:31:18.069Z,1.08
2022-10-06T08:34:28.122Z,1.05
2022-10-06T08:37:36.585Z,1.00
2022-10-06T08:40:51.200Z,1.08
2022-10-06T08:44:04.540Z,1.35
2022-10-06T08:47:17.801Z,1.30
2022-10-06T08:50:30.385Z,1.33
2022-10-06T08:53:47.009Z,1.17
2022-10-06T08:57:03.681Z,1.00
2022-10-06T09:00:18.150Z,1.45
2022-10-06T09:03:31.428Z,1.25
2022-10-06T09:06:48.104Z,1.40
2022-10-06T09:10:11.985Z,1.38
2022-10-06T09:13:24.166Z,1.20
2022-10-06T09:16:37.324Z,1.05
2022-10-06T09:19:51.131Z,1.40
2022-10-06T09:23:03.343Z,1.45
2022-10-06T09:26:14.291Z,1.25
2022-10-06T09:29:22.771Z,1.42
2022-10-06T09:32:33.320Z,1.30
2022-10-06T09:36:06.381Z,1.80
2022-10-06T09:39:27.043Z,1.30
2022-10-06T09:42:36.270Z,1.15
2022-10-06T09:45:44.676Z,1.38
2022-10-06T09:49:17.548Z,1.20
2022-10-06T09:52:25.999Z,1.60
2022-10-06T09:55:43.821Z,0.98
2022-10-06T09:58:57.582Z,1.05
2022-10-06T10:02:06.044Z,0.85
2022-10-06T10:05:21.642Z,1.02
2022-10-06T10:08:31.136Z,1.10
2022-10-06T10:11:58.456Z,1.20
2022-10-06T10:15:26.924Z,1.13
2022-10-06T10:18:35.550Z,1.30
2022-10-06T10:21:46.353Z,1.00
2022-10-06T10:25:06.893Z,1.25
2022-10-06T10:28:50.994Z,0.75
2022-10-06T10:32:12.259Z,1.00
2022-10-06T10:35:27.699Z,1.33
2022-10-06T10:38:41.034Z,1.00
2022-10-06T10:41:53.350Z,1.00
2022-10-06T10:45:05.647Z,1.17
2022-10-06T10:48:19.865Z,0.93
2022-10-06T10:51:32.978Z,1.50
2022-10-06T10:54:48.467Z,1.23
2022-10-06T10:58:00.647Z,1.10
2022-10-06T11:01:22.545Z,1.38
2022-10-06T11:04:31.730Z,1.10
2022-10-06T11:07:47.053Z,1.13
2022-10-06T11:10:59.053Z,1.52
2022-10-06T11:14:15.153Z,1.13
2022-10-06T11:17:40.089Z,1.17
2022-10-06T11:20:52.338Z,1.25
2022-10-06T11:24:06.681Z,1.38
2022-10-06T11:27:26.852Z,1.17
2022-10-06T11:30:43.685Z,1.63
2022-10-06T11:33:55.659Z,1.30
2022-10-06T11:37:13.407Z,1.00
2022-10-06T11:40:38.310Z,1.10
2022-10-06T11:44:00.354Z,1.20
2022-10-06T11:47:12.566Z,1.30
2022-10-06T11:50:36.536Z,1.02
2022-10-06T11:53:45.511Z,1.35
2022-10-06T11:56:53.987Z,1.17
2022-10-06T12:00:35.644Z,1.38
2022-10-06T12:03:49.460Z,1.20
2022-10-06T12:07:01.875Z,1.25
2022-10-06T12:10:37.824Z,1.27
2022-10-06T12:15:12.118Z,1.02
2022-10-06T12:17:29.292Z,0.90
2022-10-06T12:20:53.387Z,0.98
2022-10-06T12:24:20.403Z,1.30
2022-10-06T12:27:44.142Z,1.00
2022-10-06T12:31:07.498Z,1.25
2022-10-06T12:34:53.629Z,1.40
2022-10-06T12:38:06.265Z,1.20
2022-10-06T12:41:54.718Z,1.23
2022-10-06T12:45:14.051Z,1.10
2022-10-06T12:48:27.163Z,1.17
2022-10-06T12:51:39.038Z,1.35
2022-10-06T12:55:00.162Z,1.67
2022-10-06T12:58:18.848Z,1.00
2022-10-06T13:01:28.416Z,1.35
2022-10-06T13:04:40.577Z,1.60
2022-10-06T13:07:58.202Z,1.60
2022-10-06T13:11:21.618Z,1.27
2022-10-06T13:14:31.491Z,1.67
2022-10-06T13:17:43.653Z,1.92
2022-10-06T13:20:53.705Z,1.50
2022-10-06T13:24:02.186Z,1.30
2022-10-06T13:27:18.776Z,1.50
2022-10-06T13:30:28.920Z,1.60
2022-10-06T13:33:41.162Z,1.60
2022-10-06T13:36:51.740Z,1.33
2022-10-06T13:40:01.079Z,1.98
2022-10-06T13:43:17.440Z,1.70
2022-10-06T13:46:29.406Z,1.50
2022-10-06T13:49:50.933Z,1.57
2022-10-06T13:52:59.428Z,1.80
2022-10-06T13:59:40.759Z,1.73
2022-10-06T14:02:52.096Z,1.77
2022-10-06T14:06:21.304Z,1.90
2022-10-06T14:09:33.666Z,1.40
2022-10-06T14:12:45.206Z,1.80
2022-10-06T14:15:56.288Z,1.80
2022-10-06T14:19:07.315Z,1.70
2022-10-06T14:22:32.462Z,1.50
2022-10-06T14:25:40.902Z,1.35
2022-10-06T14:28:53.182Z,1.50
2022-10-06T14:32:14.744Z,1.47
2022-10-06T14:35:24.670Z,1.70
2022-10-06T14:38:33.383Z,1.55
2022-10-06T14:41:42.059Z,1.70
2022-10-06T14:44:50.523Z,1.30
2022-10-06T14:47:58.991Z,1.60
2022-10-06T14:51:09.710Z,1.50
2022-10-06T14:54:18.197Z,1.20
2022-10-06T14:57:26.640Z,2.28
2022-10-06T15:00:35.111Z,1.85
2022-10-06T15:03:48.919Z,1.67
2022-10-06T15:07:16.054Z,1.47
2022-10-06T15:10:24.485Z,1.40
2022-10-06T15:13:36.030Z,1.40
2022-10-06T15:16:44.969Z,1.30
2022-10-06T15:19:53.420Z,1.17
2022-10-06T15:23:03.223Z,1.10
2022-10-06T15:26:29.305Z,1.20
2022-10-06T15:29:37.795Z,1.33
2022-10-06T15:32:46.450Z,1.53
2022-10-06T15:36:18.921Z,1.53
2022-10-06T15:39:30.105Z,1.60
2022-10-06T15:42:38.742Z,1.87
2022-10-06T15:45:55.330Z,1.77
2022-10-06T15:49:05.615Z,1.73
2022-10-06T15:52:14.163Z,1.97
2022-10-06T15:55:24.051Z,1.67
2022-10-06T15:58:32.486Z,1.40
2022-10-06T16:01:44.014Z,1.80
2022-10-06T16:05:17.882Z,1.90
2022-10-06T16:08:26.305Z,1.43
2022-10-06T16:11:36.139Z,1.77
2022-10-06T16:14:44.907Z,1.50
2022-10-06T16:17:53.374Z,1.60
2022-10-06T16:21:01.839Z,2.00
2022-10-06T16:24:10.463Z,1.60
2022-10-06T16:27:20.360Z,1.70
2022-10-06T16:30:30.163Z,1.67
2022-10-06T16:33:38.689Z,1.33
2022-10-06T16:36:47.372Z,2.30
2022-10-06T16:39:56.751Z,1.50
2022-10-06T16:43:06.598Z,1.90
2022-10-06T16:46:17.858Z,1.63
2022-10-06T16:49:28.302Z,1.70
2022-10-06T16:52:37.012Z,1.67
2022-10-06T16:55:46.558Z,1.70
2022-10-06T16:58:57.873Z,1.67
2022-10-06T17:02:06.356Z,2.00
2022-10-06T17:05:14.940Z,1.90
2022-10-06T17:08:24.070Z,1.57
2022-10-06T17:11:32.667Z,1.83
2022-10-06T17:14:42.526Z,1.80
2022-10-06T17:17:51.086Z,1.87
2022-10-06T17:21:01.575Z,2.27
2022-10-06T17:24:10.459Z,2.10
2022-10-06T17:27:19.020Z,2.17
2022-10-06T17:30:29.526Z,2.63
2022-10-06T17:33:41.918Z,1.70
2022-10-06T17:36:51.804Z,1.80
2022-10-06T17:40:00.471Z,1.60
2022-10-06T17:43:09.075Z,1.63
2022-10-06T17:46:21.492Z,1.93
2022-10-06T17:49:32.849Z,2.20
2022-10-06T17:52:41.628Z,1.60
2022-10-06T17:55:50.379Z,1.80
2022-10-06T17:59:00.801Z,1.97
2022-10-06T18:02:13.571Z,1.90
2022-10-06T18:05:22.292Z,2.50
2022-10-06T18:08:32.529Z,1.90
2022-10-06T18:11:43.474Z,1.80
2022-10-06T18:14:52.017Z,2.00
2022-10-06T18:18:01.947Z,2.20
2022-10-06T18:21:10.443Z,1.87
2022-10-06T18:24:21.053Z,1.60
2022-10-06T18:27:29.479Z,1.80
2022-10-06T18:30:37.942Z,1.43
2022-10-06T18:37:17.605Z,2.10
2022-10-06T18:40:26.181Z,1.90
2022-10-06T18:43:34.635Z,2.00
2022-10-06T18:47:00.489Z,1.83
2022-10-06T18:50:11.290Z,1.50
2022-10-06T18:53:19.839Z,1.63
2022-10-06T18:56:31.358Z,1.90
2022-10-06T18:59:40.393Z,2.30
2022-10-06T19:02:51.991Z,1.80
2022-10-06T19:06:01.915Z,1.73
2022-10-06T19:09:12.491Z,1.87
2022-10-06T19:12:20.924Z,2.03
2022-10-06T19:15:29.370Z,2.23
2022-10-06T19:18:39.636Z,2.23
2022-10-06T19:21:51.767Z,2.00
2022-10-06T19:25:00.218Z,2.23
2022-10-06T19:28:08.900Z,2.33
2022-10-06T19:31:20.149Z,2.03
2022-10-06T19:34:28.718Z,2.07
2022-10-06T19:37:38.638Z,1.93
2022-10-06T19:40:47.136Z,1.70
2022-10-06T19:43:54.510Z,1.53
2022-10-06T19:47:03.003Z,1.80
2022-10-06T19:50:12.809Z,1.93
2022-10-06T19:53:22.954Z,2.20
2022-10-06T19:56:33.139Z,2.10
2022-10-06T19:59:43.500Z,1.93
2022-10-06T20:02:52.648Z,1.70
2022-10-06T20:06:06.365Z,1.87
2022-10-06T20:09:18.890Z,2.27
2022-10-06T20:12:28.452Z,2.80
2022-10-06T20:15:36.919Z,2.27
2022-10-06T20:18:47.510Z,2.13
2022-10-06T20:21:56.076Z,2.40
2022-10-06T20:25:07.250Z,2.07
2022-10-06T20:28:15.822Z,2.33
2022-10-06T20:31:26.262Z,2.20
2022-10-06T20:34:34.873Z,2.30
2022-10-06T20:37:43.467Z,2.53
2022-10-06T20:40:52.422Z,2.33
2022-10-06T20:44:02.052Z,2.37
2022-10-06T20:47:10.689Z,2.20
2022-10-06T20:50:19.579Z,2.00
2022-10-06T20:53:31.508Z,2.33
2022-10-06T20:56:41.458Z,1.80
2022-10-06T20:59:49.868Z,2.00
2022-10-06T21:02:58.330Z,2.03
2022-10-06T21:06:07.097Z,2.07
2022-10-06T21:09:17.477Z,2.40
2022-10-06T21:12:28.499Z,1.90
2022-10-06T21:15:37.104Z,2.03
2022-10-06T21:18:47.014Z,1.90
2022-10-06T21:21:55.938Z,1.80
2022-10-06T21:25:04.537Z,1.93
2022-10-06T21:28:15.015Z,2.60
2022-10-06T21:31:25.636Z,1.80
2022-10-06T21:34:34.120Z,2.10
2022-10-06T21:37:43.215Z,1.97
2022-10-06T21:40:51.810Z,1.80
2022-10-06T21:44:03.297Z,2.10
2022-10-06T21:47:11.767Z,2.20
2022-10-06T21:50:20.236Z,1.80
2022-10-06T21:53:28.624Z,1.63
2022-10-06T21:56:37.205Z,1.77
2022-10-06T21:59:47.003Z,1.67
2022-10-06T22:02:55.500Z,1.80
2022-10-06T22:06:04.573Z,2.50
2022-10-06T22:09:15.826Z,2.10
2022-10-06T22:12:24.313Z,1.90
2022-10-06T22:15:37.408Z,2.10
2022-10-06T22:18:46.408Z,1.70
2022-10-06T22:21:55.763Z,2.23
2022-10-06T22:25:04.469Z,1.73
2022-10-06T22:28:12.933Z,1.80
2022-10-06T22:31:25.977Z,2.20
2022-10-06T22:34:35.284Z,2.00
2022-10-06T22:37:43.825Z,1.97
2022-10-06T22:40:52.401Z,1.80
2022-10-06T22:44:01.084Z,1.93
2022-10-06T22:47:11.525Z,1.93
2022-10-06T22:50:20.071Z,2.60
2022-10-06T22:53:31.374Z,2.27
2022-10-06T22:56:39.791Z,1.97
2022-10-06T22:59:48.281Z,1.77
2022-10-06T23:02:58.177Z,1.50
2022-10-06T23:06:07.556Z,1.87
2022-10-06T23:09:16.101Z,2.00
2022-10-06T23:12:24.697Z,2.37
2022-10-06T23:15:33.099Z,2.30
2022-10-06T23:18:44.145Z,1.83
2022-10-06T23:21:52.540Z,2.07
2022-10-06T23:25:00.987Z,2.17
2022-10-06T23:28:09.462Z,1.73
2022-10-06T23:31:17.897Z,2.30
2022-10-06T23:34:27.744Z,1.97
2022-10-06T23:37:36.239Z,2.40
2022-10-06T23:40:44.675Z,1.80
2022-10-06T23:43:53.146Z,2.10
2022-10-06T23:47:01.489Z,1.80
2022-10-06T23:50:11.841Z,2.07
2022-10-06T23:53:20.301Z,2.00
2022-10-06T23:56:28.743Z,1.90
2022-10-06T23:59:37.105Z,1.97
